TAF and METAR

METAR for Pian Rosa (Mtn T

LIMH 280355Z 02006KT 9999 BKN030 M05/M05 Q1018 RMK BKN MON CLD CIME VAL NIL VIS MIN 9999
Report created 28. okt 04:55
wind 6 knots from NNE (020°) visibility > 10km broken clouds (~75% cover) at 3000 feet Temperature -5° with dewpoint at -5° (Humidity 100.00%) Pressure 1018 hPa
No TAF available for Pian Rosa (Mtn T
Pian Rosa (Mtn T in Italy at 3488m

Latest 5 airports